createdAt,value
2023-04-14T00:00:51.806Z,98549.83
2023-04-14T00:03:20.452Z,98550.62
2023-04-14T00:05:48.138Z,98548.35
2023-04-14T00:08:15.626Z,98549.80
2023-04-14T00:10:42.710Z,98549.30
2023-04-14T00:13:09.368Z,98551.67
2023-04-14T00:15:41.048Z,98551.02
2023-04-14T00:18:08.125Z,98548.66
2023-04-14T00:20:34.900Z,98548.90
2023-04-14T00:23:01.516Z,98551.89
2023-04-14T00:25:28.343Z,98553.27
2023-04-14T00:27:54.917Z,98554.41
2023-04-14T00:30:24.460Z,98555.38
2023-04-14T00:32:51.417Z,98557.08
2023-04-14T00:35:18.028Z,98552.79
2023-04-14T00:37:45.878Z,98550.59
2023-04-14T00:40:12.696Z,98551.86
2023-04-14T00:42:46.352Z,98550.98
2023-04-14T00:45:14.354Z,98548.00
2023-04-14T00:47:42.406Z,98547.73
2023-04-14T00:50:10.092Z,98551.25
2023-04-14T00:52:37.054Z,98549.23
2023-04-14T00:55:07.156Z,98551.10
2023-04-14T00:57:34.145Z,98551.25
2023-04-14T01:00:01.095Z,98550.87
2023-04-14T01:02:30.408Z,98551.27
2023-04-14T01:07:26.136Z,98560.46
2023-04-14T01:09:54.103Z,98562.23
2023-04-14T01:12:42.788Z,98564.50
2023-04-14T01:15:33.639Z,98566.54
2023-04-14T01:18:45.284Z,98566.27
2023-04-14T01:21:15.848Z,98567.46
2023-04-14T01:23:55.743Z,98567.69
2023-04-14T01:26:29.248Z,98569.40
2023-04-14T01:29:24.743Z,98569.13
2023-04-14T01:32:11.082Z,98561.27
2023-04-14T01:34:51.490Z,98557.73
2023-04-14T01:37:30.954Z,98557.95
2023-04-14T01:40:02.240Z,98562.13
2023-04-14T01:42:32.773Z,98563.48
2023-04-14T01:45:05.321Z,98563.70
2023-04-14T01:47:32.187Z,98565.33
2023-04-14T01:49:58.890Z,98566.42
2023-04-14T01:52:27.492Z,98566.29
2023-04-14T01:54:56.011Z,98569.39
2023-04-14T01:57:25.928Z,98568.70
2023-04-14T01:59:54.424Z,98566.98
2023-04-14T02:02:21.162Z,98569.23
2023-04-14T02:04:48.204Z,98569.67
2023-04-14T02:07:18.874Z,98573.44
2023-04-14T02:09:45.597Z,98574.02
2023-04-14T02:12:12.875Z,98572.70
2023-04-14T02:14:41.130Z,98573.36
2023-04-14T02:17:09.149Z,98573.30
2023-04-14T02:19:36.563Z,98578.50
2023-04-14T02:22:03.471Z,98581.95
2023-04-14T02:24:31.581Z,98585.67
2023-04-14T02:27:11.112Z,98581.34
2023-04-14T02:29:40.361Z,98587.14
2023-04-14T02:32:11.208Z,98596.05
2023-04-14T02:35:04.261Z,98596.77
2023-04-14T02:37:35.460Z,98600.52
2023-04-14T02:40:10.938Z,98600.59
2023-04-14T02:42:40.853Z,98605.30
2023-04-14T02:45:11.678Z,98609.06
2023-04-14T02:47:40.580Z,98612.17
2023-04-14T02:50:09.888Z,98612.48
2023-04-14T02:52:37.094Z,98615.77
2023-04-14T02:55:05.765Z,98616.38
2023-04-14T02:57:32.795Z,98617.96
2023-04-14T02:59:59.550Z,98622.47
2023-04-14T03:02:29.032Z,98623.75
2023-04-14T03:05:04.734Z,98623.79
2023-04-14T03:07:41.699Z,98625.98
2023-04-14T03:10:10.582Z,98629.39
2023-04-14T03:12:38.877Z,98632.13
2023-04-14T03:15:06.605Z,98635.51
2023-04-14T03:17:33.969Z,98637.45
2023-04-14T03:20:06.469Z,98635.44
2023-04-14T03:22:38.411Z,98639.59
2023-04-14T03:25:06.312Z,98638.96
2023-04-14T03:27:34.464Z,98635.64
2023-04-14T03:30:03.284Z,98638.19
2023-04-14T03:32:36.279Z,98641.75
2023-04-14T03:35:03.138Z,98640.23
2023-04-14T03:37:31.142Z,98639.21
2023-04-14T03:40:01.608Z,98641.98
2023-04-14T03:42:31.016Z,98641.47
2023-04-14T03:45:00.032Z,98642.27
2023-04-14T03:47:31.573Z,98644.70
2023-04-14T03:50:01.252Z,98640.55
2023-04-14T03:52:33.605Z,98646.92
2023-04-14T03:55:05.638Z,98648.38
2023-04-14T03:57:33.432Z,98649.60
2023-04-14T04:00:01.788Z,98651.08
2023-04-14T04:02:31.505Z,98655.75
2023-04-14T04:04:58.523Z,98661.06
2023-04-14T04:07:26.055Z,98660.02
2023-04-14T04:09:53.398Z,98663.55
2023-04-14T04:12:20.340Z,98663.92
2023-04-14T04:14:55.778Z,98664.96
2023-04-14T04:17:23.437Z,98665.40
2023-04-14T04:19:51.211Z,98667.52
2023-04-14T04:22:19.774Z,98667.90
2023-04-14T04:24:46.855Z,98672.35
2023-04-14T04:27:27.117Z,98671.56
2023-04-14T04:29:55.838Z,98671.75
2023-04-14T04:32:23.111Z,98677.45
2023-04-14T04:34:50.543Z,98674.16
2023-04-14T04:37:19.485Z,98677.25
2023-04-14T04:39:47.989Z,98678.70
2023-04-14T04:42:15.925Z,98681.06
2023-04-14T04:44:44.395Z,98684.21
2023-04-14T04:47:11.433Z,98683.23
2023-04-14T04:49:39.242Z,98688.67
2023-04-14T04:52:06.570Z,98692.09
2023-04-14T04:54:33.321Z,98696.20
2023-04-14T04:57:00.004Z,98698.84
2023-04-14T04:59:26.983Z,98702.33
2023-04-14T05:01:55.625Z,98703.96
2023-04-14T05:04:22.921Z,98702.44
2023-04-14T05:06:49.713Z,98707.77
2023-04-14T05:09:19.974Z,98713.42
2023-04-14T05:11:48.484Z,98712.78
2023-04-14T05:14:15.617Z,98713.47
2023-04-14T05:16:42.226Z,98716.14
2023-04-14T05:19:11.112Z,98719.33
2023-04-14T05:21:38.306Z,98721.77
2023-04-14T05:24:06.695Z,98721.33
2023-04-14T05:26:57.881Z,98721.86
2023-04-14T05:29:22.436Z,98726.55
2023-04-14T05:31:49.862Z,98727.39
2023-04-14T05:34:16.608Z,98731.80
2023-04-14T05:36:45.059Z,98734.30
2023-04-14T05:39:13.080Z,98736.77
2023-04-14T05:41:44.842Z,98734.45
2023-04-14T05:44:11.656Z,98734.30
2023-04-14T05:46:38.380Z,98731.66
2023-04-14T05:49:05.841Z,98732.36
2023-04-14T05:51:32.818Z,98737.80
2023-04-14T05:54:00.714Z,98734.90
2023-04-14T05:56:28.736Z,98738.83
2023-04-14T05:58:55.937Z,98741.73
2023-04-14T06:01:22.861Z,98743.94
2023-04-14T06:03:51.327Z,98747.14
2023-04-14T06:06:19.626Z,98750.56
2023-04-14T06:08:48.200Z,98749.91
2023-04-14T06:11:15.197Z,98751.98
2023-04-14T06:13:44.249Z,98754.66
2023-04-14T06:16:11.379Z,98756.39
2023-04-14T06:18:38.444Z,98758.13
2023-04-14T06:21:05.280Z,98759.02
2023-04-14T06:23:32.046Z,98758.54
2023-04-14T06:26:01.443Z,98761.83
2023-04-14T06:28:28.769Z,98759.78
2023-04-14T06:30:55.537Z,98763.92
2023-04-14T06:33:22.473Z,98766.38
2023-04-14T06:35:51.338Z,98773.50
2023-04-14T06:38:19.226Z,98782.17
2023-04-14T06:40:46.031Z,98782.66
2023-04-14T06:43:14.501Z,98786.57
2023-04-14T06:45:41.569Z,98785.27
2023-04-14T06:48:08.471Z,98781.48
2023-04-14T06:50:37.065Z,98780.69
2023-04-14T06:53:06.594Z,98781.43
2023-04-14T06:55:34.969Z,98787.70
2023-04-14T06:58:03.980Z,98791.70
2023-04-14T07:00:32.115Z,98790.58
2023-04-14T07:02:59.306Z,98795.05
2023-04-14T07:05:27.438Z,98796.34
2023-04-14T07:07:56.267Z,98801.85
2023-04-14T07:10:23.351Z,98804.02
2023-04-14T07:12:50.384Z,98810.84
2023-04-14T07:15:18.884Z,98809.20
2023-04-14T07:17:45.884Z,98812.84
2023-04-14T07:20:12.946Z,98812.10
2023-04-14T07:22:40.152Z,98813.28
2023-04-14T07:25:07.391Z,98813.00
2023-04-14T07:27:35.193Z,98809.27
2023-04-14T07:30:08.930Z,98808.63
2023-04-14T07:32:37.855Z,98810.77
2023-04-14T07:35:08.134Z,98809.86
2023-04-14T07:37:37.029Z,98813.41
2023-04-14T07:40:04.317Z,98813.12
2023-04-14T07:42:32.012Z,98814.88
2023-04-14T07:45:02.550Z,98814.85
2023-04-14T07:47:29.790Z,98814.62
2023-04-14T07:49:57.757Z,98815.15
2023-04-14T07:52:26.160Z,98815.48
2023-04-14T07:54:52.928Z,98812.94
2023-04-14T07:57:19.915Z,98813.14
2023-04-14T07:59:46.977Z,98810.30
2023-04-14T08:02:13.785Z,98812.13
2023-04-14T08:04:40.713Z,98813.84
2023-04-14T08:07:07.580Z,98816.67
2023-04-14T08:09:35.041Z,98820.13
2023-04-14T08:12:02.163Z,98829.89
2023-04-14T08:14:29.233Z,98826.96
2023-04-14T08:17:01.143Z,98826.35
2023-04-14T08:19:28.230Z,98828.46
2023-04-14T08:21:56.389Z,98829.02
2023-04-14T08:24:28.265Z,98834.60
2023-04-14T08:26:56.408Z,98831.67
2023-04-14T08:29:23.251Z,98833.36
2023-04-14T08:31:50.898Z,98835.48
2023-04-14T08:34:21.637Z,98834.20
2023-04-14T08:36:56.303Z,98832.60
2023-04-14T08:39:23.285Z,98825.11
2023-04-14T08:41:50.877Z,98823.90
2023-04-14T08:44:18.738Z,98821.54
2023-04-14T08:46:45.825Z,98818.50
2023-04-14T08:49:15.938Z,98819.05
2023-04-14T08:51:43.002Z,98819.11
2023-04-14T08:54:10.598Z,98818.98
2023-04-14T08:56:39.750Z,98819.58
2023-04-14T08:59:10.710Z,98824.36
2023-04-14T09:01:39.078Z,98822.80
2023-04-14T09:04:07.327Z,98824.42
2023-04-14T09:06:34.574Z,98828.58
2023-04-14T09:09:07.069Z,98828.54
2023-04-14T09:11:33.967Z,98830.94
2023-04-14T09:14:01.928Z,98834.43
2023-04-14T09:16:34.764Z,98836.95
2023-04-14T09:19:07.354Z,98838.59
2023-04-14T09:21:53.491Z,98843.86
2023-04-14T09:25:04.690Z,98839.40
2023-04-14T09:27:32.340Z,98843.94
2023-04-14T09:29:59.865Z,98849.48
2023-04-14T09:32:30.658Z,98849.83
2023-04-14T09:34:58.433Z,98852.73
2023-04-14T09:37:25.933Z,98851.10
2023-04-14T09:39:54.821Z,98858.80
2023-04-14T09:42:36.658Z,98859.14
2023-04-14T09:45:04.751Z,98860.75
2023-04-14T09:47:34.805Z,98861.47
2023-04-14T09:50:03.363Z,98864.75
2023-04-14T09:52:47.847Z,98860.59
2023-04-14T09:55:15.494Z,98868.54
2023-04-14T09:57:43.499Z,98866.82
2023-04-14T10:00:21.704Z,98870.56
2023-04-14T10:03:12.071Z,98868.74
2023-04-14T10:05:38.799Z,98868.07
2023-04-14T10:08:06.826Z,98867.27
2023-04-14T10:10:33.614Z,98866.13
2023-04-14T10:13:07.929Z,98869.45
2023-04-14T10:15:37.092Z,98866.84
2023-04-14T10:18:03.817Z,98866.38
2023-04-14T10:20:30.995Z,98873.97
2023-04-14T10:22:58.481Z,98874.23
2023-04-14T10:25:25.779Z,98880.05
2023-04-14T10:27:52.531Z,98883.85
2023-04-14T10:30:20.166Z,98886.41
2023-04-14T10:32:47.482Z,98888.95
2023-04-14T10:35:18.828Z,98894.44
2023-04-14T10:37:52.219Z,98894.48
2023-04-14T10:40:19.110Z,98895.88
2023-04-14T10:42:54.115Z,98896.50
2023-04-14T10:45:24.001Z,98898.43
2023-04-14T10:47:52.075Z,98902.14
2023-04-14T10:50:21.870Z,98899.77
2023-04-14T10:52:56.162Z,98902.02
2023-04-14T10:55:24.503Z,98903.49
2023-04-14T10:57:51.638Z,98904.75
2023-04-14T11:00:25.620Z,98905.64
2023-04-14T11:02:55.387Z,98907.08
2023-04-14T11:05:22.571Z,98909.02
2023-04-14T11:07:55.593Z,98910.65
2023-04-14T11:10:23.486Z,98915.64
2023-04-14T11:12:58.890Z,98915.27
2023-04-14T11:15:49.704Z,98922.29
2023-04-14T11:18:28.417Z,98926.70
2023-04-14T11:21:25.699Z,98929.47
2023-04-14T11:23:52.641Z,98932.96
2023-04-14T11:26:23.985Z,98931.86
2023-04-14T11:28:53.266Z,98929.98
2023-04-14T11:31:22.994Z,98927.42
2023-04-14T11:33:50.449Z,98929.99
2023-04-14T11:36:17.459Z,98926.23
2023-04-14T11:38:46.926Z,98930.46
2023-04-14T11:41:15.096Z,98933.79
2023-04-14T11:43:45.959Z,98931.52
2023-04-14T11:46:12.761Z,98927.33
2023-04-14T11:48:41.095Z,98925.23
2023-04-14T11:51:07.928Z,98927.73
2023-04-14T11:53:35.728Z,98925.61
2023-04-14T11:56:05.781Z,98924.52
2023-04-14T11:58:33.257Z,98926.57
2023-04-14T12:01:00.736Z,98924.93
2023-04-14T12:03:36.292Z,98925.45
2023-04-14T12:06:03.490Z,98923.38
2023-04-14T12:08:30.878Z,98924.23
2023-04-14T12:11:13.326Z,98925.12
2023-04-14T12:13:41.108Z,98926.90
2023-04-14T12:16:07.926Z,98923.95
2023-04-14T12:18:35.844Z,98926.83
2023-04-14T12:21:03.603Z,98922.54
2023-04-14T12:23:40.755Z,98923.23
2023-04-14T12:26:11.528Z,98919.86
2023-04-14T12:28:41.135Z,98923.40
2023-04-14T12:31:08.621Z,98925.09
2023-04-14T12:33:35.866Z,98923.30
2023-04-14T12:36:07.036Z,98921.16
2023-04-14T12:38:33.809Z,98920.41
2023-04-14T12:41:00.670Z,98919.20
2023-04-14T12:43:35.060Z,98918.84
2023-04-14T12:46:03.952Z,98918.52
2023-04-14T12:48:47.829Z,98918.58
2023-04-14T12:51:16.107Z,98922.55
2023-04-14T12:53:44.577Z,98920.19
2023-04-14T12:56:16.895Z,98924.42
2023-04-14T12:58:47.871Z,98926.17
2023-04-14T13:01:16.580Z,98929.38
2023-04-14T13:03:53.942Z,98930.45
2023-04-14T13:06:23.124Z,98928.75
2023-04-14T13:08:51.867Z,98930.02
2023-04-14T13:11:20.438Z,98928.75
2023-04-14T13:13:54.304Z,98929.16
2023-04-14T13:16:21.594Z,98936.21
2023-04-14T13:18:48.678Z,98939.05
2023-04-14T13:21:17.494Z,98937.55
2023-04-14T13:23:44.334Z,98939.66
2023-04-14T13:26:11.634Z,98936.55
2023-04-14T13:28:51.340Z,98935.95
2023-04-14T13:31:20.143Z,98934.40
2023-04-14T13:33:47.024Z,98937.05
2023-04-14T13:36:13.793Z,98936.13
2023-04-14T13:38:42.527Z,98930.73
2023-04-14T13:41:09.226Z,98929.00
2023-04-14T13:43:36.955Z,98933.80
2023-04-14T13:46:04.339Z,98928.50
2023-04-14T13:48:31.064Z,98933.79
2023-04-14T13:50:59.008Z,98931.52
2023-04-14T13:53:25.926Z,98928.42
2023-04-14T13:55:53.150Z,98931.00
2023-04-14T13:58:20.753Z,98931.56
2023-04-14T14:00:48.044Z,98932.94
2023-04-14T14:03:34.969Z,98935.35
2023-04-14T14:06:02.890Z,98939.21
2023-04-14T14:08:30.011Z,98940.28
2023-04-14T14:10:56.705Z,98938.44
2023-04-14T14:13:25.354Z,98939.58
2023-04-14T14:15:52.264Z,98937.74
2023-04-14T14:18:21.206Z,98943.83
2023-04-14T14:20:50.829Z,98947.79
2023-04-14T14:23:17.725Z,98945.23
2023-04-14T14:25:44.908Z,98951.41
2023-04-14T14:28:12.048Z,98956.98
2023-04-14T14:30:38.886Z,98959.34
2023-04-14T14:33:06.854Z,98960.54
2023-04-14T14:35:34.271Z,98965.14
2023-04-14T14:38:01.217Z,98966.52
2023-04-14T14:40:31.366Z,98973.28
2023-04-14T14:42:59.197Z,98976.67
2023-04-14T14:45:30.769Z,98982.23
2023-04-14T14:47:59.459Z,98982.84
2023-04-14T14:50:26.862Z,98988.19
2023-04-14T14:52:56.235Z,98995.06
2023-04-14T14:55:23.325Z,98997.38
2023-04-14T14:57:50.738Z,98998.95
2023-04-14T15:00:23.472Z,99005.84
2023-04-14T15:03:09.804Z,99002.96
2023-04-14T15:05:37.762Z,99006.65
2023-04-14T15:08:04.557Z,99009.02
2023-04-14T15:10:33.241Z,99009.56
2023-04-14T15:13:00.636Z,99013.88
2023-04-14T15:15:27.536Z,99012.27
2023-04-14T15:17:56.356Z,99011.46
2023-04-14T15:20:23.072Z,99015.54
2023-04-14T15:22:50.313Z,99020.83
2023-04-14T15:25:17.016Z,99024.80
2023-04-14T15:27:45.187Z,99025.45
2023-04-14T15:30:12.455Z,99027.98
2023-04-14T15:32:39.255Z,99037.38
2023-04-14T15:35:09.247Z,99036.73
2023-04-14T15:37:36.530Z,99040.29
2023-04-14T15:40:03.717Z,99039.85
2023-04-14T15:42:32.775Z,99040.19
2023-04-14T15:45:00.688Z,99042.98
2023-04-14T15:47:27.818Z,99045.48
2023-04-14T15:50:08.583Z,99044.38
2023-04-14T15:52:39.086Z,99049.46
2023-04-14T15:55:07.025Z,99054.02
2023-04-14T15:57:35.631Z,99056.52
2023-04-14T16:00:06.705Z,99058.88
2023-04-14T16:02:41.684Z,99063.32
2023-04-14T16:05:10.778Z,99064.75
2023-04-14T16:07:38.851Z,99068.02
2023-04-14T16:10:06.489Z,99073.46
2023-04-14T16:12:34.737Z,99075.29
2023-04-14T16:15:06.477Z,99078.98
2023-04-14T16:17:33.710Z,99086.49
2023-04-14T16:20:01.436Z,99083.22
2023-04-14T16:22:41.743Z,99088.20
2023-04-14T16:25:09.329Z,99090.36
2023-04-14T16:27:35.993Z,99089.19
2023-04-14T16:30:03.377Z,99091.95
2023-04-14T16:32:35.000Z,99094.61
2023-04-14T16:35:01.734Z,99097.51
2023-04-14T16:37:33.902Z,99096.88
2023-04-14T16:40:01.354Z,99096.48
2023-04-14T16:42:28.602Z,99102.23
2023-04-14T16:44:57.958Z,99108.17
2023-04-14T16:47:24.880Z,99110.29
2023-04-14T16:49:52.399Z,99110.11
2023-04-14T16:52:20.932Z,99117.71
2023-04-14T16:54:47.821Z,99117.91
2023-04-14T16:57:14.952Z,99113.73
2023-04-14T16:59:45.641Z,99115.59
2023-04-14T17:02:12.652Z,99120.63
2023-04-14T17:04:40.056Z,99124.10
2023-04-14T17:07:09.781Z,99128.87
2023-04-14T17:09:38.362Z,99126.64
2023-04-14T17:12:05.063Z,99130.34
2023-04-14T17:14:32.079Z,99132.71
2023-04-14T17:17:01.262Z,99134.20
2023-04-14T17:19:29.068Z,99137.17
2023-04-14T17:21:56.380Z,99143.62
2023-04-14T17:24:25.866Z,99145.27
2023-04-14T17:26:52.564Z,99149.69
2023-04-14T17:29:20.084Z,99151.98
2023-04-14T17:31:48.340Z,99156.70
2023-04-14T17:34:17.808Z,99162.08
2023-04-14T17:36:44.518Z,99159.80
2023-04-14T17:39:11.724Z,99163.33
2023-04-14T17:41:38.574Z,99169.08
2023-04-14T17:44:06.622Z,99167.40
2023-04-14T17:46:33.918Z,99171.77
2023-04-14T17:49:03.763Z,99173.35
2023-04-14T17:51:31.089Z,99175.10
2023-04-14T17:53:59.048Z,99176.46
2023-04-14T17:56:27.211Z,99171.88
2023-04-14T17:58:55.731Z,99176.19
2023-04-14T18:01:23.577Z,99174.23
2023-04-14T18:03:50.754Z,99177.67
2023-04-14T18:06:17.399Z,99179.14
2023-04-14T18:08:46.413Z,99182.23
2023-04-14T18:11:13.958Z,99181.23
2023-04-14T18:13:41.139Z,99184.01
2023-04-14T18:16:10.010Z,99185.26
2023-04-14T18:18:46.023Z,99184.09
2023-04-14T18:21:12.903Z,99182.27
2023-04-14T18:23:40.390Z,99177.47
2023-04-14T18:28:43.662Z,99179.73
2023-04-14T18:31:13.554Z,99183.52
2023-04-14T18:34:08.769Z,99186.55
2023-04-14T18:36:38.228Z,99189.94
2023-04-14T18:39:06.466Z,99188.02
2023-04-14T18:41:34.588Z,99186.77
2023-04-14T18:44:02.836Z,99186.42
2023-04-14T18:46:30.378Z,99188.73
2023-04-14T18:49:00.062Z,99182.30
2023-04-14T18:51:27.219Z,99181.00
2023-04-14T18:53:54.435Z,99178.27
2023-04-14T18:56:21.145Z,99173.56
2023-04-14T18:58:48.582Z,99171.11
2023-04-14T19:01:16.718Z,99174.48
2023-04-14T19:03:46.575Z,99175.95
2023-04-14T19:06:13.911Z,99162.94
2023-04-14T19:08:41.198Z,99164.45
2023-04-14T19:11:10.562Z,99173.10
2023-04-14T19:13:41.336Z,99172.27
2023-04-14T19:16:10.908Z,99171.43
2023-04-14T19:18:39.180Z,99167.73
2023-04-14T19:21:08.385Z,99170.45
2023-04-14T19:23:36.305Z,99168.92
2023-04-14T19:26:04.751Z,99173.85
2023-04-14T19:28:39.191Z,99174.35
2023-04-14T19:31:05.911Z,99171.71
2023-04-14T19:33:32.699Z,99172.14
2023-04-14T19:36:00.532Z,99172.24
2023-04-14T19:38:28.064Z,99176.23
2023-04-14T19:40:54.715Z,99179.39
2023-04-14T19:43:22.015Z,99175.66
2023-04-14T19:45:50.840Z,99176.39
2023-04-14T19:48:23.324Z,99171.27
2023-04-14T19:50:52.672Z,99169.30
2023-04-14T19:53:20.334Z,99174.80
2023-04-14T19:55:51.017Z,99168.61
2023-04-14T19:58:21.681Z,99170.44
2023-04-14T20:00:51.055Z,99172.21
2023-04-14T20:03:19.684Z,99176.14
2023-04-14T20:05:51.004Z,99179.49
2023-04-14T20:08:19.763Z,99179.10
2023-04-14T20:10:51.396Z,99184.94
2023-04-14T20:13:22.311Z,99195.48
2023-04-14T20:15:58.176Z,99196.92
2023-04-14T20:18:27.487Z,99194.71
2023-04-14T20:28:53.499Z,99195.83
2023-04-14T20:31:21.591Z,99196.83
2023-04-14T20:33:50.346Z,99206.37
2023-04-14T20:36:17.262Z,99211.59
2023-04-14T20:38:43.930Z,99206.48
2023-04-14T20:41:11.845Z,99212.17
2023-04-14T20:43:41.637Z,99216.92
2023-04-14T20:46:08.422Z,99221.73
2023-04-14T20:48:40.536Z,99218.48
2023-04-14T20:51:08.404Z,99220.88
2023-04-14T20:53:35.331Z,99229.98
2023-04-14T20:56:06.752Z,99233.08
2023-04-14T20:58:34.270Z,99238.02
2023-04-14T21:01:02.192Z,99243.88
2023-04-14T21:03:33.788Z,99248.02
2023-04-14T21:06:01.126Z,99253.02
2023-04-14T21:09:05.315Z,99256.27
2023-04-14T21:11:32.539Z,99260.00
2023-04-14T21:15:40.672Z,99267.88
2023-04-14T21:16:46.362Z,99269.23
2023-04-14T21:19:13.229Z,99273.19
2023-04-14T21:21:43.267Z,99272.67
2023-04-14T21:24:09.958Z,99279.10
2023-04-14T21:26:36.753Z,99284.83
2023-04-14T21:29:04.718Z,99285.54
2023-04-14T21:31:31.960Z,99289.55
2023-04-14T21:33:59.004Z,99293.98
2023-04-14T21:36:26.775Z,99301.92
2023-04-14T21:38:53.616Z,99300.62
2023-04-14T21:41:20.375Z,99305.45
2023-04-14T21:43:47.582Z,99314.24
2023-04-14T21:46:14.395Z,99319.63
2023-04-14T21:48:42.315Z,99324.02
2023-04-14T21:51:10.501Z,99324.95
2023-04-14T21:53:38.178Z,99332.05
2023-04-14T21:56:09.874Z,99337.48
2023-04-14T21:58:41.783Z,99341.03
2023-04-14T22:01:11.792Z,99341.09
2023-04-14T22:03:40.772Z,99346.52
2023-04-14T22:06:10.625Z,99346.27
2023-04-14T22:08:40.235Z,99344.05
2023-04-14T22:11:07.325Z,99349.85
2023-04-14T22:13:34.052Z,99345.44
2023-04-14T22:16:03.096Z,99347.90
2023-04-14T22:18:31.363Z,99353.17
2023-04-14T22:20:58.912Z,99349.86
2023-04-14T22:23:26.884Z,99353.13
2023-04-14T22:25:53.568Z,99358.98
2023-04-14T22:28:21.646Z,99366.22
2023-04-14T22:30:48.464Z,99368.98
2023-04-14T22:33:16.959Z,99362.37
2023-04-14T22:35:43.930Z,99362.56
2023-04-14T22:38:10.913Z,99362.99
2023-04-14T22:40:38.007Z,99367.58
2023-04-14T22:43:08.245Z,99362.14
2023-04-14T22:45:37.909Z,99360.36
2023-04-14T22:48:06.263Z,99356.61
2023-04-14T22:50:33.362Z,99354.02
2023-04-14T22:53:00.250Z,99358.36
2023-04-14T22:55:26.936Z,99357.88
2023-04-14T22:57:53.690Z,99357.81
2023-04-14T23:00:24.845Z,99357.79
2023-04-14T23:02:52.299Z,99354.91
2023-04-14T23:05:19.966Z,99354.22
2023-04-14T23:07:53.063Z,99350.91
2023-04-14T23:10:23.503Z,99353.61
2023-04-14T23:12:50.566Z,99351.06
2023-04-14T23:15:18.146Z,99348.19
2023-04-14T23:17:47.155Z,99350.86
2023-04-14T23:20:14.962Z,99349.20
2023-04-14T23:22:42.323Z,99352.59
2023-04-14T23:25:10.128Z,99353.16
2023-04-14T23:27:39.311Z,99346.20
2023-04-14T23:30:07.468Z,99341.39
2023-04-14T23:32:34.599Z,99340.16
2023-04-14T23:35:01.384Z,99332.86
2023-04-14T23:37:29.625Z,99332.41
2023-04-14T23:39:57.013Z,99332.67
2023-04-14T23:42:24.376Z,99330.75
2023-04-14T23:44:51.574Z,99337.30
2023-04-14T23:47:18.698Z,99340.45
2023-04-14T23:49:48.704Z,99340.81
2023-04-14T23:52:15.780Z,99338.46
2023-04-14T23:54:42.412Z,99336.14
2023-04-14T23:57:12.028Z,99342.10
2023-04-14T23:59:38.866Z,99343.27
